sensor_id;sensor_type;location;lat;lon;timestamp;P1;durP1;ratioP1;P2;durP2;ratioP2
47513;SDS011;33951;51.988;5.910;2023-04-01T04:03:03;26.92;;;14.25;;
47513;SDS011;33951;51.988;5.910;2023-04-01T04:05:49;22.02;;;12.82;;
47513;SDS011;33951;51.988;5.910;2023-04-01T04:08:15;26.88;;;13.85;;
47513;SDS011;33951;51.988;5.910;2023-04-01T04:10:41;19.98;;;13.40;;
47513;SDS011;33951;51.988;5.910;2023-04-01T04:13:07;24.33;;;15.25;;
47513;SDS011;33951;51.988;5.910;2023-04-01T04:15:33;23.70;;;14.50;;
47513;SDS011;33951;51.988;5.910;2023-04-01T04:18:01;28.48;;;16.08;;
47513;SDS011;33951;51.988;5.910;2023-04-01T04:20:27;25.27;;;15.00;;
47513;SDS011;33951;51.988;5.910;2023-04-01T04:22:55;23.58;;;15.88;;
47513;SDS011;33951;51.988;5.910;2023-04-01T04:25:28;29.92;;;17.17;;
47513;SDS011;33951;51.988;5.910;2023-04-01T04:27:54;24.88;;;16.00;;
47513;SDS011;33951;51.988;5.910;2023-04-01T04:30:21;29.60;;;18.33;;
47513;SDS011;33951;51.988;5.910;2023-04-01T04:32:50;33.67;;;19.00;;
47513;SDS011;33951;51.988;5.910;2023-04-01T04:35:16;28.45;;;18.42;;
47513;SDS011;33951;51.988;5.910;2023-04-01T04:37:41;31.75;;;19.27;;
47513;SDS011;33951;51.988;5.910;2023-04-01T04:40:07;33.13;;;19.48;;
47513;SDS011;33951;51.988;5.910;2023-04-01T04:42:33;33.83;;;20.05;;
47513;SDS011;33951;51.988;5.910;2023-04-01T04:44:58;36.20;;;21.02;;
47513;SDS011;33951;51.988;5.910;2023-04-01T04:47:24;38.05;;;22.85;;
47513;SDS011;33951;51.988;5.910;2023-04-01T04:49:50;42.33;;;24.25;;
47513;SDS011;33951;51.988;5.910;2023-04-01T04:52:15;37.22;;;22.00;;
47513;SDS011;33951;51.988;5.910;2023-04-01T04:54:41;33.97;;;21.48;;
47513;SDS011;33951;51.988;5.910;2023-04-01T04:57:06;34.20;;;21.30;;
47513;SDS011;33951;51.988;5.910;2023-04-01T04:59:32;28.80;;;19.27;;
47513;SDS011;33951;51.988;5.910;2023-04-01T05:02:01;30.08;;;19.30;;
47513;SDS011;33951;51.988;5.910;2023-04-01T05:04:26;30.10;;;19.45;;
47513;SDS011;33951;51.988;5.910;2023-04-01T05:06:52;30.45;;;20.73;;
47513;SDS011;33951;51.988;5.910;2023-04-01T05:09:17;33.88;;;21.20;;
47513;SDS011;33951;51.988;5.910;2023-04-01T05:11:43;26.20;;;18.70;;
47513;SDS011;33951;51.988;5.910;2023-04-01T05:14:15;41.30;;;23.77;;
47513;SDS011;33951;51.988;5.910;2023-04-01T05:16:41;34.83;;;22.30;;
47513;SDS011;33951;51.988;5.910;2023-04-01T05:19:07;25.77;;;19.67;;
47513;SDS011;33951;51.988;5.910;2023-04-01T05:21:32;35.47;;;21.23;;
47513;SDS011;33951;51.988;5.910;2023-04-01T05:23:58;34.13;;;21.63;;
47513;SDS011;33951;51.988;5.910;2023-04-01T05:26:24;30.20;;;19.77;;
47513;SDS011;33951;51.988;5.910;2023-04-01T05:28:49;22.35;;;15.60;;
47513;SDS011;33951;51.988;5.910;2023-04-01T05:31:15;20.73;;;14.10;;
47513;SDS011;33951;51.988;5.910;2023-04-01T05:33:43;27.48;;;17.58;;
47513;SDS011;33951;51.988;5.910;2023-04-01T05:36:13;25.20;;;15.00;;
47513;SDS011;33951;51.988;5.910;2023-04-01T05:38:40;22.35;;;13.32;;
47513;SDS011;33951;51.988;5.910;2023-04-01T05:41:07;17.92;;;12.80;;
47513;SDS011;33951;51.988;5.910;2023-04-01T05:43:35;19.05;;;13.15;;
47513;SDS011;33951;51.988;5.910;2023-04-01T05:46:01;15.27;;;11.02;;
47513;SDS011;33951;51.988;5.910;2023-04-01T05:48:26;24.75;;;12.57;;
47513;SDS011;33951;51.988;5.910;2023-04-01T05:50:52;16.25;;;11.18;;
47513;SDS011;33951;51.988;5.910;2023-04-01T05:53:18;13.05;;;9.85;;
47513;SDS011;33951;51.988;5.910;2023-04-01T05:55:43;19.45;;;10.65;;
47513;SDS011;33951;51.988;5.910;2023-04-01T05:58:09;15.70;;;10.48;;
47513;SDS011;33951;51.988;5.910;2023-04-01T06:00:35;17.63;;;10.80;;
47513;SDS011;33951;51.988;5.910;2023-04-01T06:03:00;29.52;;;13.05;;
47513;SDS011;33951;51.988;5.910;2023-04-01T06:05:27;29.75;;;14.18;;
47513;SDS011;33951;51.988;5.910;2023-04-01T06:08:01;28.10;;;14.20;;
47513;SDS011;33951;51.988;5.910;2023-04-01T06:11:23;35.03;;;16.33;;
47513;SDS011;33951;51.988;5.910;2023-04-01T06:25:41;31.83;;;16.25;;
47513;SDS011;33951;51.988;5.910;2023-04-01T06:28:32;39.97;;;18.00;;
47513;SDS011;33951;51.988;5.910;2023-04-01T06:42:27;41.20;;;18.60;;
47513;SDS011;33951;51.988;5.910;2023-04-01T06:53:21;31.80;;;15.52;;
47513;SDS011;33951;51.988;5.910;2023-04-01T06:56:02;26.60;;;12.55;;
47513;SDS011;33951;51.988;5.910;2023-04-01T06:58:35;27.25;;;11.35;;
47513;SDS011;33951;51.988;5.910;2023-04-01T07:01:16;28.50;;;11.93;;
47513;SDS011;33951;51.988;5.910;2023-04-01T07:04:13;25.08;;;11.35;;
47513;SDS011;33951;51.988;5.910;2023-04-01T07:06:54;20.52;;;10.50;;
47513;SDS011;33951;51.988;5.910;2023-04-01T07:09:28;24.65;;;11.48;;
47513;SDS011;33951;51.988;5.910;2023-04-01T07:12:00;19.95;;;10.10;;
47513;SDS011;33951;51.988;5.910;2023-04-01T07:14:58;19.85;;;10.00;;
47513;SDS011;33951;51.988;5.910;2023-04-01T07:17:48;31.65;;;18.13;;
47513;SDS011;33951;51.988;5.910;2023-04-01T07:20:38;25.73;;;15.20;;
47513;SDS011;33951;51.988;5.910;2023-04-01T07:23:11;14.63;;;7.95;;
47513;SDS011;33951;51.988;5.910;2023-04-01T07:25:52;16.13;;;7.85;;
47513;SDS011;33951;51.988;5.910;2023-04-01T07:28:23;20.73;;;7.40;;
47513;SDS011;33951;51.988;5.910;2023-04-01T07:33:41;9.52;;;5.63;;
47513;SDS011;33951;51.988;5.910;2023-04-01T07:36:38;8.63;;;5.50;;
47513;SDS011;33951;51.988;5.910;2023-04-01T07:42:20;7.45;;;4.60;;
47513;SDS011;33951;51.988;5.910;2023-04-01T07:51:10;8.05;;;4.43;;
47513;SDS011;33951;51.988;5.910;2023-04-01T07:56:40;5.78;;;3.90;;
47513;SDS011;33951;51.988;5.910;2023-04-01T07:59:44;9.35;;;4.80;;
47513;SDS011;33951;51.988;5.910;2023-04-01T08:02:34;7.53;;;4.35;;
47513;SDS011;33951;51.988;5.910;2023-04-01T08:05:19;5.63;;;3.85;;
47513;SDS011;33951;51.988;5.910;2023-04-01T08:15:58;7.25;;;4.00;;
47513;SDS011;33951;51.988;5.910;2023-04-01T08:21:16;7.78;;;4.85;;
47513;SDS011;33951;51.988;5.910;2023-04-01T08:23:52;5.85;;;4.45;;
47513;SDS011;33951;51.988;5.910;2023-04-01T08:26:28;8.77;;;4.75;;
47513;SDS011;33951;51.988;5.910;2023-04-01T08:37:07;5.75;;;3.70;;
47513;SDS011;33951;51.988;5.910;2023-04-01T09:03:56;3.38;;;1.60;;
47513;SDS011;33951;51.988;5.910;2023-04-01T09:06:41;1.52;;;1.30;;
47513;SDS011;33951;51.988;5.910;2023-04-01T09:09:37;2.33;;;1.77;;
47513;SDS011;33951;51.988;5.910;2023-04-01T09:31:38;3.50;;;2.47;;
47513;SDS011;33951;51.988;5.910;2023-04-01T09:49:09;4.38;;;3.33;;
47513;SDS011;33951;51.988;5.910;2023-04-01T09:52:10;4.55;;;3.13;;
47513;SDS011;33951;51.988;5.910;2023-04-01T10:25:28;8.27;;;5.95;;
47513;SDS011;33951;51.988;5.910;2023-04-01T10:28:35;9.32;;;5.85;;
47513;SDS011;33951;51.988;5.910;2023-04-01T10:43:23;10.80;;;7.35;;
47513;SDS011;33951;51.988;5.910;2023-04-01T10:49:13;11.60;;;7.57;;
47513;SDS011;33951;51.988;5.910;2023-04-01T11:08:04;21.45;;;12.88;;
47513;SDS011;33951;51.988;5.910;2023-04-01T11:33:36;2.78;;;2.20;;
47513;SDS011;33951;51.988;5.910;2023-04-01T11:41:51;2.95;;;1.73;;
47513;SDS011;33951;51.988;5.910;2023-04-01T11:44:34;3.38;;;2.35;;
47513;SDS011;33951;51.988;5.910;2023-04-01T12:05:31;5.05;;;3.90;;
47513;SDS011;33951;51.988;5.910;2023-04-01T12:08:13;3.58;;;2.60;;
47513;SDS011;33951;51.988;5.910;2023-04-01T12:10:53;3.90;;;2.42;;
47513;SDS011;33951;51.988;5.910;2023-04-01T12:19:35;5.43;;;3.08;;
47513;SDS011;33951;51.988;5.910;2023-04-01T12:28:41;5.75;;;3.60;;
47513;SDS011;33951;51.988;5.910;2023-04-01T12:37:12;6.32;;;3.65;;
47513;SDS011;33951;51.988;5.910;2023-04-01T12:43:29;7.88;;;4.20;;
47513;SDS011;33951;51.988;5.910;2023-04-01T12:57:48;7.68;;;4.28;;
47513;SDS011;33951;51.988;5.910;2023-04-01T13:00:41;6.30;;;3.83;;
47513;SDS011;33951;51.988;5.910;2023-04-01T13:20:28;5.63;;;3.40;;
47513;SDS011;33951;51.988;5.910;2023-04-01T13:29:31;8.45;;;5.45;;
47513;SDS011;33951;51.988;5.910;2023-04-01T13:32:34;4.53;;;3.53;;
47513;SDS011;33951;51.988;5.910;2023-04-01T13:40:58;5.30;;;3.08;;
47513;SDS011;33951;51.988;5.910;2023-04-01T13:43:45;3.65;;;3.00;;
47513;SDS011;33951;51.988;5.910;2023-04-01T13:46:33;3.00;;;2.60;;
47513;SDS011;33951;51.988;5.910;2023-04-01T13:49:34;3.00;;;2.60;;
47513;SDS011;33951;51.988;5.910;2023-04-01T13:52:20;3.45;;;2.67;;
47513;SDS011;33951;51.988;5.910;2023-04-01T14:09:42;4.57;;;3.30;;
47513;SDS011;33951;51.988;5.910;2023-04-01T14:17:56;3.15;;;2.53;;
47513;SDS011;33951;51.988;5.910;2023-04-01T14:20:37;2.60;;;2.40;;
47513;SDS011;33951;51.988;5.910;2023-04-01T14:23:16;2.95;;;2.60;;
47513;SDS011;33951;51.988;5.910;2023-04-01T14:50:27;4.63;;;3.92;;
47513;SDS011;33951;51.988;5.910;2023-04-01T14:53:40;4.88;;;2.92;;
47513;SDS011;33951;51.988;5.910;2023-04-01T14:56:13;3.97;;;3.00;;
47513;SDS011;33951;51.988;5.910;2023-04-01T15:13:13;5.45;;;3.90;;
47513;SDS011;33951;51.988;5.910;2023-04-01T15:18:25;4.07;;;2.72;;
47513;SDS011;33951;51.988;5.910;2023-04-01T15:21:24;3.72;;;2.78;;
47513;SDS011;33951;51.988;5.910;2023-04-01T15:24:26;4.32;;;3.92;;
47513;SDS011;33951;51.988;5.910;2023-04-01T15:27:46;6.38;;;5.60;;
47513;SDS011;33951;51.988;5.910;2023-04-01T15:36:50;7.88;;;7.07;;
47513;SDS011;33951;51.988;5.910;2023-04-01T15:39:24;10.00;;;8.25;;
47513;SDS011;33951;51.988;5.910;2023-04-01T15:45:30;6.53;;;5.93;;
47513;SDS011;33951;51.988;5.910;2023-04-01T16:00:10;5.95;;;5.38;;
47513;SDS011;33951;51.988;5.910;2023-04-01T16:03:19;6.60;;;5.85;;
47513;SDS011;33951;51.988;5.910;2023-04-01T16:12:07;6.03;;;5.43;;
47513;SDS011;33951;51.988;5.910;2023-04-01T17:14:21;7.80;;;7.00;;
47513;SDS011;33951;51.988;5.910;2023-04-01T17:17:11;7.30;;;6.60;;
47513;SDS011;33951;51.988;5.910;2023-04-01T17:20:07;8.27;;;7.47;;
47513;SDS011;33951;51.988;5.910;2023-04-01T17:25:39;11.50;;;9.77;;
47513;SDS011;33951;51.988;5.910;2023-04-01T19:19:20;14.33;;;13.03;;
47513;SDS011;33951;51.988;5.910;2023-04-01T22:27:10;16.63;;;14.93;;
